Thunderstorms From: 15-12-2017 06:00 Until: 16-12-2017 06:00 warning for: Thunderstorms Level: Yellow info button

Although rather usual in this region, locally or potentially dangerous phenomena are expected. (such as local winds, summer thunderstorms, rising streams or high waves) Be aware and pay attention to the latest weather updates, especially if you carry out activities exposed to weather or close to a stream or shoreline. 


Meteo18 Weather Cam more information Meteo18 Weather Cam


warning for Thunderstorms more information blitzortung!


Rain radar more information rain snow radar


Visit our other weather sites:

Template documentation
and downloads

And another site



Weather Underground History page Text

Daily Summary for February 20, 2017 Units:  Both    English   Metric
« Previous Day
Next Day »
Daily Weekly Monthly Yearly Custom
  High: Low: Average:
Temperature: 47.8 °F /  8.8 °C 31.8 °F /  -0.1 °C 41.9 °F /  5.5 °C
Dew Point: 46.9 °F /  8.3 °C 30.6 °F /  -0.8 °C 40.3 °F /  4.6 °C
Humidity: 97 % 87 % 94 %
Wind Speed: 11 mph /  17.7 km/h - 3.3 mph /  5.3 km/h
Wind Gust: 18 mph /  29.0 km/h - -
Wind:- - SW
Pressure: 30.3 in /  1027.3 hPa 30.3 in /  1024.9 hPa -
Precipitation: 0.01 in /  0.3 mm    
Historical Graphs
 
 
Tabular Data for February 20, 2017
Time Temperature Dew Point Pressure Wind Wind Speed Wind Gust Humidity Rainfall Rate (Hourly)
00:02 37.9 °F /  3.3 °C 34.3 °F /  1.3 °C 30.3 in /  1027.3 hPa Calm   1 mph /  1.6 km/h 87 % 0 in /  0.0 mm
00:07 37.9 °F /  3.3 °C 34.3 °F /  1.3 °C 30.3 in /  1027.3 hPa Calm     87 % 0 in /  0.0 mm
00:12 37.6 °F /  3.1 °C 34 °F /  1.1 °C 30.3 in /  1027.3 hPa Calm     87 % 0 in /  0.0 mm
00:17 37 °F /  2.8 °C 33.6 °F /  0.9 °C 30.3 in /  1027.3 hPa Calm     87 % 0 in /  0.0 mm
00:22 37 °F /  2.8 °C 34.2 °F /  1.2 °C 30.3 in /  1027.3 hPa Calm     89 % 0 in /  0.0 mm
00:32 36.9 °F /  2.7 °C 33.6 °F /  0.9 °C 30.3 in /  1027.3 hPa Calm     88 % 0 in /  0.0 mm
00:42 36.1 °F /  2.3 °C 33.3 °F /  0.7 °C 30.3 in /  1027.0 hPa Calm     89 % 0 in /  0.0 mm
00:47 36.1 °F /  2.3 °C 33.4 °F /  0.8 °C 30.3 in /  1027.0 hPa Calm     90 % 0 in /  0.0 mm
00:52 36.1 °F /  2.3 °C 33.4 °F /  0.8 °C 30.3 in /  1027.0 hPa Calm     90 % 0 in /  0.0 mm
00:57 36.3 °F /  2.4 °C 34 °F /  1.1 °C 30.3 in /  1027.0 hPa Calm     91 % 0 in /  0.0 mm
01:02 36.3 °F /  2.4 °C 33.6 °F /  0.9 °C 30.3 in /  1027.0 hPa Calm     90 % 0 in /  0.0 mm
01:12 36 °F /  2.2 °C 33.3 °F /  0.7 °C 30.3 in /  1027.0 hPa Calm     90 % 0 in /  0.0 mm
01:17 36 °F /  2.2 °C 33.6 °F /  0.9 °C 30.3 in /  1027.0 hPa Calm     91 % 0 in /  0.0 mm
01:22 36.1 °F /  2.3 °C 33.8 °F /  1.0 °C 30.3 in /  1027.0 hPa Calm     91 % 0 in /  0.0 mm
01:27 36 °F /  2.2 °C 33.6 °F /  0.9 °C 30.3 in /  1027.0 hPa Calm     91 % 0 in /  0.0 mm
01:32 36.1 °F /  2.3 °C 33.8 °F /  1.0 °C 30.3 in /  1027.3 hPa Calm     91 % 0 in /  0.0 mm
01:37 36.5 °F /  2.5 °C 34.2 °F /  1.2 °C 30.3 in /  1027.0 hPa Calm     91 % 0 in /  0.0 mm
01:42 36.1 °F /  2.3 °C 33.4 °F /  0.8 °C 30.3 in /  1027.0 hPa Calm   1 mph /  1.6 km/h 90 % 0 in /  0.0 mm
01:47 36 °F /  2.2 °C 33.6 °F /  0.9 °C 30.3 in /  1027.3 hPa Calm   1 mph /  1.6 km/h 91 % 0 in /  0.0 mm
01:57 35.4 °F /  1.9 °C 32.7 °F /  0.4 °C 30.3 in /  1027.0 hPa Calm   1 mph /  1.6 km/h 90 % 0 in /  0.0 mm
02:02 35.2 °F /  1.8 °C 32.9 °F /  0.5 °C 30.3 in /  1027.0 hPa Calm   1 mph /  1.6 km/h 91 % 0 in /  0.0 mm
02:07 34.9 °F /  1.6 °C 32.5 °F /  0.3 °C 30.3 in /  1027.0 hPa Calm   1 mph /  1.6 km/h 91 % 0 in /  0.0 mm
02:12 34.5 °F /  1.4 °C 32.4 °F /  0.2 °C 30.3 in /  1027.0 hPa Calm   1 mph /  1.6 km/h 92 % 0 in /  0.0 mm
02:17 34.3 °F /  1.3 °C 32.2 °F /  0.1 °C 30.3 in /  1027.0 hPa Calm   1 mph /  1.6 km/h 92 % 0 in /  0.0 mm
02:22 34.3 °F /  1.3 °C 32.2 °F /  0.1 °C 30.3 in /  1027.0 hPa Calm   1 mph /  1.6 km/h 92 % 0 in /  0.0 mm
02:27 34.3 °F /  1.3 °C 32.2 °F /  0.1 °C 30.3 in /  1027.0 hPa SSE 1 mph /  1.6 km/h   92 % 0 in /  0.0 mm
02:32 34.2 °F /  1.2 °C 32 °F /  0.0 °C 30.3 in /  1027.0 hPa Calm   1 mph /  1.6 km/h 92 % 0 in /  0.0 mm
02:37 34 °F /  1.1 °C 31.8 °F /  -0.1 °C 30.3 in /  1027.0 hPa South 1 mph /  1.6 km/h 1 mph /  1.6 km/h 92 % 0 in /  0.0 mm
02:42 34 °F /  1.1 °C 32.2 °F /  0.1 °C 30.3 in /  1027.0 hPa Calm   2 mph /  3.2 km/h 93 % 0 in /  0.0 mm
02:47 34 °F /  1.1 °C 32.2 °F /  0.1 °C 30.3 in /  1027.0 hPa Calm   2 mph /  3.2 km/h 93 % 0 in /  0.0 mm
02:52 33.6 °F /  0.9 °C 31.8 °F /  -0.1 °C 30.3 in /  1027.0 hPa Calm   2 mph /  3.2 km/h 93 % 0 in /  0.0 mm
02:57 33.6 °F /  0.9 °C 31.8 °F /  -0.1 °C 30.3 in /  1027.0 hPa SSW 1 mph /  1.6 km/h 2 mph /  3.2 km/h 93 % 0 in /  0.0 mm
03:02 33.6 °F /  0.9 °C 31.8 °F /  -0.1 °C 30.3 in /  1027.0 hPa Calm   2 mph /  3.2 km/h 93 % 0 in /  0.0 mm
03:07 33.4 °F /  0.8 °C 31.6 °F /  -0.2 °C 30.3 in /  1027.0 hPa Calm   2 mph /  3.2 km/h 93 % 0 in /  0.0 mm
03:12 33.4 °F /  0.8 °C 31.6 °F /  -0.2 °C 30.3 in /  1027.0 hPa Calm   2 mph /  3.2 km/h 93 % 0 in /  0.0 mm
03:17 33.4 °F /  0.8 °C 31.6 °F /  -0.2 °C 30.3 in /  1027.0 hPa SSW 1 mph /  1.6 km/h 2 mph /  3.2 km/h 93 % 0 in /  0.0 mm
03:22 33.4 °F /  0.8 °C 31.8 °F /  -0.1 °C 30.3 in /  1026.6 hPa Calm   1 mph /  1.6 km/h 94 % 0 in /  0.0 mm
03:27 33.4 °F /  0.8 °C 31.8 °F /  -0.1 °C 30.3 in /  1026.6 hPa Calm   1 mph /  1.6 km/h 94 % 0 in /  0.0 mm
03:32 33.6 °F /  0.9 °C 32 °F /  0.0 °C 30.3 in /  1026.6 hPa Calm   1 mph /  1.6 km/h 94 % 0 in /  0.0 mm
03:37 33.6 °F /  0.9 °C 32 °F /  0.0 °C 30.3 in /  1026.6 hPa Calm   1 mph /  1.6 km/h 94 % 0 in /  0.0 mm
03:42 33.4 °F /  0.8 °C 31.8 °F /  -0.1 °C 30.3 in /  1026.6 hPa Calm   1 mph /  1.6 km/h 94 % 0 in /  0.0 mm
03:47 33.3 °F /  0.7 °C 31.6 °F /  -0.2 °C 30.3 in /  1026.6 hPa Calm     94 % 0 in /  0.0 mm
03:52 33.3 °F /  0.7 °C 31.6 °F /  -0.2 °C 30.3 in /  1026.6 hPa Calm     94 % 0 in /  0.0 mm
03:57 33.1 °F /  0.6 °C 31.5 °F /  -0.3 °C 30.3 in /  1026.6 hPa Calm     94 % 0 in /  0.0 mm
04:02 32.9 °F /  0.5 °C 31.3 °F /  -0.4 °C 30.3 in /  1026.6 hPa Calm     94 % 0 in /  0.0 mm
04:07 32.9 °F /  0.5 °C 31.3 °F /  -0.4 °C 30.3 in /  1026.3 hPa Calm     94 % 0 in /  0.0 mm
04:12 32.7 °F /  0.4 °C 31.1 °F /  -0.5 °C 30.3 in /  1026.6 hPa Calm     94 % 0 in /  0.0 mm
04:17 32.5 °F /  0.3 °C 30.9 °F /  -0.6 °C 30.3 in /  1026.6 hPa Calm     94 % 0 in /  0.0 mm
04:22 32.7 °F /  0.4 °C 31.5 °F /  -0.3 °C 30.3 in /  1026.6 hPa Calm     95 % 0 in /  0.0 mm
04:32 32.7 °F /  0.4 °C 31.5 °F /  -0.3 °C 30.3 in /  1026.6 hPa Calm     95 % 0 in /  0.0 mm
04:37 32.7 °F /  0.4 °C 31.5 °F /  -0.3 °C 30.3 in /  1026.6 hPa Calm     95 % 0 in /  0.0 mm
04:42 32.7 °F /  0.4 °C 31.5 °F /  -0.3 °C 30.3 in /  1026.6 hPa Calm     95 % 0 in /  0.0 mm
04:52 32.5 °F /  0.3 °C 31.3 °F /  -0.4 °C 30.3 in /  1026.6 hPa Calm     95 % 0 in /  0.0 mm
04:57 32.4 °F /  0.2 °C 31.1 °F /  -0.5 °C 30.3 in /  1026.6 hPa Calm     95 % 0 in /  0.0 mm
05:02 32.2 °F /  0.1 °C 30.9 °F /  -0.6 °C 30.3 in /  1026.6 hPa Calm     95 % 0 in /  0.0 mm
05:12 31.8 °F /  -0.1 °C 30.6 °F /  -0.8 °C 30.3 in /  1026.6 hPa Calm     95 % 0 in /  0.0 mm
05:17 31.8 °F /  -0.1 °C 30.6 °F /  -0.8 °C 30.3 in /  1026.3 hPa Calm     95 % 0 in /  0.0 mm
05:22 32 °F /  0.0 °C 30.7 °F /  -0.7 °C 30.3 in /  1026.3 hPa Calm     95 % 0 in /  0.0 mm
05:32 32.2 °F /  0.1 °C 30.9 °F /  -0.6 °C 30.3 in /  1026.3 hPa Calm     95 % 0 in /  0.0 mm
05:42 32.5 °F /  0.3 °C 31.3 °F /  -0.4 °C 30.3 in /  1026.3 hPa Calm     95 % 0 in /  0.0 mm
05:47 32.5 °F /  0.3 °C 31.3 °F /  -0.4 °C 30.3 in /  1026.6 hPa Calm     95 % 0 in /  0.0 mm
05:52 32.7 °F /  0.4 °C 31.5 °F /  -0.3 °C 30.3 in /  1026.6 hPa Calm     95 % 0 in /  0.0 mm
05:57 32.9 °F /  0.5 °C 31.6 °F /  -0.2 °C 30.3 in /  1026.6 hPa Calm     95 % 0 in /  0.0 mm
06:02 33.1 °F /  0.6 °C 31.8 °F /  -0.1 °C 30.3 in /  1026.3 hPa Calm     95 % 0 in /  0.0 mm
06:12 33.3 °F /  0.7 °C 32 °F /  0.0 °C 30.3 in /  1026.3 hPa Calm     95 % 0 in /  0.0 mm
06:17 33.3 °F /  0.7 °C 32 °F /  0.0 °C 30.3 in /  1026.3 hPa Calm     95 % 0 in /  0.0 mm
06:22 33.3 °F /  0.7 °C 32 °F /  0.0 °C 30.3 in /  1026.3 hPa Calm     95 % 0 in /  0.0 mm
06:32 33.4 °F /  0.8 °C 32.2 °F /  0.1 °C 30.3 in /  1026.3 hPa Calm     95 % 0 in /  0.0 mm
06:37 33.6 °F /  0.9 °C 32.4 °F /  0.2 °C 30.3 in /  1026.6 hPa Calm     95 % 0 in /  0.0 mm
06:42 33.6 °F /  0.9 °C 32.4 °F /  0.2 °C 30.3 in /  1026.6 hPa Calm     95 % 0 in /  0.0 mm
06:47 33.8 °F /  1.0 °C 32.5 °F /  0.3 °C 30.3 in /  1026.6 hPa Calm     95 % 0 in /  0.0 mm
06:52 34 °F /  1.1 °C 32.7 °F /  0.4 °C 30.3 in /  1026.6 hPa Calm     95 % 0 in /  0.0 mm
07:02 34.3 °F /  1.3 °C 33.1 °F /  0.6 °C 30.3 in /  1026.6 hPa Calm     95 % 0 in /  0.0 mm
07:12 34.5 °F /  1.4 °C 33.3 °F /  0.7 °C 30.3 in /  1026.6 hPa Calm     95 % 0 in /  0.0 mm
07:17 34.5 °F /  1.4 °C 33.3 °F /  0.7 °C 30.3 in /  1026.6 hPa Calm     95 % 0 in /  0.0 mm
07:22 34.7 °F /  1.5 °C 33.4 °F /  0.8 °C 30.3 in /  1026.3 hPa SE 1 mph /  1.6 km/h   95 % 0 in /  0.0 mm
07:32 34.7 °F /  1.5 °C 33.4 °F /  0.8 °C 30.3 in /  1026.3 hPa Calm     95 % 0 in /  0.0 mm
07:42 34.5 °F /  1.4 °C 33.3 °F /  0.7 °C 30.3 in /  1026.3 hPa Calm   2 mph /  3.2 km/h 95 % 0 in /  0.0 mm
07:47 34.5 °F /  1.4 °C 33.3 °F /  0.7 °C 30.3 in /  1026.3 hPa Calm   1 mph /  1.6 km/h 95 % 0 in /  0.0 mm
07:52 34.5 °F /  1.4 °C 33.3 °F /  0.7 °C 30.3 in /  1026.3 hPa SSE 1 mph /  1.6 km/h 1 mph /  1.6 km/h 95 % 0 in /  0.0 mm
07:57 34.7 °F /  1.5 °C 33.4 °F /  0.8 °C 30.3 in /  1026.3 hPa Calm   2 mph /  3.2 km/h 95 % 0 in /  0.0 mm
08:02 34.9 °F /  1.6 °C 33.6 °F /  0.9 °C 30.3 in /  1026.3 hPa Calm   2 mph /  3.2 km/h 95 % 0 in /  0.0 mm
08:12 34.9 °F /  1.6 °C 33.6 °F /  0.9 °C 30.3 in /  1026.6 hPa Calm   2 mph /  3.2 km/h 95 % 0 in /  0.0 mm
08:17 34.9 °F /  1.6 °C 33.6 °F /  0.9 °C 30.3 in /  1026.6 hPa Calm   2 mph /  3.2 km/h 95 % 0 in /  0.0 mm
08:22 34.9 °F /  1.6 °C 33.6 °F /  0.9 °C 30.3 in /  1026.6 hPa SSE 1 mph /  1.6 km/h 2 mph /  3.2 km/h 95 % 0 in /  0.0 mm
08:32 35.1 °F /  1.7 °C 33.8 °F /  1.0 °C 30.3 in /  1026.6 hPa South 1 mph /  1.6 km/h 2 mph /  3.2 km/h 95 % 0 in /  0.0 mm
08:37 35.2 °F /  1.8 °C 34 °F /  1.1 °C 30.3 in /  1027.0 hPa South 2 mph /  3.2 km/h 3 mph /  4.8 km/h 95 % 0 in /  0.0 mm
08:42 35.8 °F /  2.1 °C 34.5 °F /  1.4 °C 30.3 in /  1027.0 hPa SSE 1 mph /  1.6 km/h 3 mph /  4.8 km/h 95 % 0 in /  0.0 mm
08:52 36.5 °F /  2.5 °C 34.9 °F /  1.6 °C 30.3 in /  1027.0 hPa SSE 1 mph /  1.6 km/h 3 mph /  4.8 km/h 94 % 0 in /  0.0 mm
08:57 36.9 °F /  2.7 °C 35.1 °F /  1.7 °C 30.3 in /  1027.3 hPa SW 2 mph /  3.2 km/h 3 mph /  4.8 km/h 93 % 0 in /  0.0 mm
09:02 37.2 °F /  2.9 °C 35.1 °F /  1.7 °C 30.3 in /  1027.0 hPa South 2 mph /  3.2 km/h 3 mph /  4.8 km/h 92 % 0 in /  0.0 mm
09:12 38.3 °F /  3.5 °C 36 °F /  2.2 °C 30.3 in /  1027.0 hPa SSW 2 mph /  3.2 km/h 3 mph /  4.8 km/h 91 % 0 in /  0.0 mm
09:22 39.4 °F /  4.1 °C 36.7 °F /  2.6 °C 30.3 in /  1027.0 hPa South 2 mph /  3.2 km/h 4 mph /  6.4 km/h 90 % 0 in /  0.0 mm
09:32 39.9 °F /  4.4 °C 36.9 °F /  2.7 °C 30.3 in /  1027.0 hPa South 1 mph /  1.6 km/h 4 mph /  6.4 km/h 89 % 0 in /  0.0 mm
09:42 40.5 °F /  4.7 °C 37.2 °F /  2.9 °C 30.3 in /  1027.3 hPa SW 7 mph /  11.3 km/h 7 mph /  11.3 km/h 88 % 0 in /  0.0 mm
09:47 40.6 °F /  4.8 °C 37 °F /  2.8 °C 30.3 in /  1027.0 hPa SSW 4 mph /  6.4 km/h 7 mph /  11.3 km/h 87 % 0 in /  0.0 mm
09:52 41 °F /  5.0 °C 37.8 °F /  3.2 °C 30.3 in /  1027.0 hPa SSW 4 mph /  6.4 km/h 7 mph /  11.3 km/h 88 % 0 in /  0.0 mm
09:57 41.5 °F /  5.3 °C 38.5 °F /  3.6 °C 30.3 in /  1027.0 hPa SW 4 mph /  6.4 km/h 8 mph /  12.9 km/h 89 % 0 in /  0.0 mm
10:02 41.7 °F /  5.4 °C 38.5 °F /  3.6 °C 30.3 in /  1027.0 hPa SSW 3 mph /  4.8 km/h 8 mph /  12.9 km/h 88 % 0 in /  0.0 mm
10:12 41.2 °F /  5.1 °C 37.9 °F /  3.3 °C 30.3 in /  1027.0 hPa SW 5 mph /  8.0 km/h 8 mph /  12.9 km/h 88 % 0 in /  0.0 mm
10:17 41.4 °F /  5.2 °C 38.1 °F /  3.4 °C 30.3 in /  1027.0 hPa SW 3 mph /  4.8 km/h 10 mph /  16.1 km/h 88 % 0 in /  0.0 mm
10:22 41.4 °F /  5.2 °C 38.3 °F /  3.5 °C 30.3 in /  1027.0 hPa WNW 3 mph /  4.8 km/h 10 mph /  16.1 km/h 89 % 0 in /  0.0 mm
10:32 41.2 °F /  5.1 °C 38.5 °F /  3.6 °C 30.3 in /  1027.0 hPa SW 3 mph /  4.8 km/h 11 mph /  17.7 km/h 90 % 0 in /  0.0 mm
10:42 41.2 °F /  5.1 °C 38.5 °F /  3.6 °C 30.3 in /  1027.3 hPa SW 3 mph /  4.8 km/h 11 mph /  17.7 km/h 90 % 0 in /  0.0 mm
10:47 41.2 °F /  5.1 °C 38.5 °F /  3.6 °C 30.3 in /  1027.0 hPa Calm   8 mph /  12.9 km/h 90 % 0 in /  0.0 mm
10:52 41.2 °F /  5.1 °C 38.5 °F /  3.6 °C 30.3 in /  1027.0 hPa SW 4 mph /  6.4 km/h 11 mph /  17.7 km/h 90 % 0 in /  0.0 mm
10:57 41.2 °F /  5.1 °C 38.5 °F /  3.6 °C 30.3 in /  1027.0 hPa WSW 3 mph /  4.8 km/h 11 mph /  17.7 km/h 90 % 0 in /  0.0 mm
11:02 41.4 °F /  5.2 °C 38.7 °F /  3.7 °C 30.3 in /  1027.0 hPa SW 9 mph /  14.5 km/h 11 mph /  17.7 km/h 90 % 0 in /  0.0 mm
11:07 41.2 °F /  5.1 °C 38.8 °F /  3.8 °C 30.3 in /  1027.0 hPa SSW 4 mph /  6.4 km/h 11 mph /  17.7 km/h 91 % 0 in /  0.0 mm
11:12 41.2 °F /  5.1 °C 38.8 °F /  3.8 °C 30.3 in /  1027.0 hPa SW 8 mph /  12.9 km/h 11 mph /  17.7 km/h 91 % 0 in /  0.0 mm
11:17 40.8 °F /  4.9 °C 38.5 °F /  3.6 °C 30.3 in /  1027.0 hPa SW 6 mph /  9.7 km/h 11 mph /  17.7 km/h 91 % 0 in /  0.0 mm
11:22 41.4 °F /  5.2 °C 39 °F /  3.9 °C 30.3 in /  1027.0 hPa SSW 3 mph /  4.8 km/h 11 mph /  17.7 km/h 91 % 0 in /  0.0 mm
11:32 41.9 °F /  5.5 °C 39.4 °F /  4.1 °C 30.3 in /  1027.0 hPa South 3 mph /  4.8 km/h 10 mph /  16.1 km/h 91 % 0 in /  0.0 mm
11:37 42.1 °F /  5.6 °C 39.4 °F /  4.1 °C 30.3 in /  1027.0 hPa SW 7 mph /  11.3 km/h 11 mph /  17.7 km/h 90 % 0 in /  0.0 mm
11:42 42.4 °F /  5.8 °C 39.9 °F /  4.4 °C 30.3 in /  1027.0 hPa SW 8 mph /  12.9 km/h 11 mph /  17.7 km/h 91 % 0 in /  0.0 mm
11:47 42.6 °F /  5.9 °C 39.9 °F /  4.4 °C 30.3 in /  1027.0 hPa SW 7 mph /  11.3 km/h 11 mph /  17.7 km/h 90 % 0 in /  0.0 mm
11:52 42.4 °F /  5.8 °C 39.7 °F /  4.3 °C 30.3 in /  1027.0 hPa SSW 3 mph /  4.8 km/h 11 mph /  17.7 km/h 90 % 0 in /  0.0 mm
11:57 42.6 °F /  5.9 °C 39.9 °F /  4.4 °C 30.3 in /  1027.0 hPa SSW 2 mph /  3.2 km/h 11 mph /  17.7 km/h 90 % 0 in /  0.0 mm
12:02 42.6 °F /  5.9 °C 39.9 °F /  4.4 °C 30.3 in /  1027.0 hPa SSW 4 mph /  6.4 km/h 11 mph /  17.7 km/h 90 % 0 in /  0.0 mm
12:07 42.6 °F /  5.9 °C 39.9 °F /  4.4 °C 30.3 in /  1026.6 hPa SSW 5 mph /  8.0 km/h 11 mph /  17.7 km/h 90 % 0 in /  0.0 mm
12:12 43 °F /  6.1 °C 40.3 °F /  4.6 °C 30.3 in /  1026.6 hPa SW 6 mph /  9.7 km/h 10 mph /  16.1 km/h 90 % 0 in /  0.0 mm
12:17 43.2 °F /  6.2 °C 40.1 °F /  4.5 °C 30.3 in /  1027.0 hPa SSW 6 mph /  9.7 km/h 10 mph /  16.1 km/h 89 % 0 in /  0.0 mm
12:22 43.5 °F /  6.4 °C 40.5 °F /  4.7 °C 30.3 in /  1027.0 hPa SW 6 mph /  9.7 km/h 10 mph /  16.1 km/h 89 % 0 in /  0.0 mm
12:27 43.9 °F /  6.6 °C 40.8 °F /  4.9 °C 30.3 in /  1026.6 hPa SW 7 mph /  11.3 km/h 10 mph /  16.1 km/h 89 % 0 in /  0.0 mm
12:32 43.9 °F /  6.6 °C 40.8 °F /  4.9 °C 30.3 in /  1026.6 hPa SW 6 mph /  9.7 km/h 10 mph /  16.1 km/h 89 % 0 in /  0.0 mm
12:42 44.4 °F /  6.9 °C 41.9 °F /  5.5 °C 30.3 in /  1026.6 hPa SW 6 mph /  9.7 km/h 11 mph /  17.7 km/h 91 % 0 in /  0.0 mm
12:47 44.8 °F /  7.1 °C 42.1 °F /  5.6 °C 30.3 in /  1026.6 hPa SW 5 mph /  8.0 km/h 9 mph /  14.5 km/h 90 % 0 in /  0.0 mm
12:52 45 °F /  7.2 °C 42.4 °F /  5.8 °C 30.3 in /  1026.6 hPa SSW 3 mph /  4.8 km/h 9 mph /  14.5 km/h 91 % 0 in /  0.0 mm
12:57 45.3 °F /  7.4 °C 42.6 °F /  5.9 °C 30.3 in /  1026.6 hPa WSW 6 mph /  9.7 km/h 10 mph /  16.1 km/h 90 % 0 in /  0.0 mm
13:02 45.5 °F /  7.5 °C 42.8 °F /  6.0 °C 30.3 in /  1026.6 hPa WSW 4 mph /  6.4 km/h 10 mph /  16.1 km/h 90 % 0 in /  0.0 mm
13:07 45.7 °F /  7.6 °C 42.6 °F /  5.9 °C 30.3 in /  1026.6 hPa SSW 7 mph /  11.3 km/h 11 mph /  17.7 km/h 89 % 0 in /  0.0 mm
13:12 45.7 °F /  7.6 °C 43 °F /  6.1 °C 30.3 in /  1026.6 hPa WSW 7 mph /  11.3 km/h 11 mph /  17.7 km/h 90 % 0 in /  0.0 mm
13:17 45.9 °F /  7.7 °C 43.2 °F /  6.2 °C 30.3 in /  1026.3 hPa SW 10 mph /  16.1 km/h 11 mph /  17.7 km/h 90 % 0 in /  0.0 mm
13:22 46 °F /  7.8 °C 43.5 °F /  6.4 °C 30.3 in /  1026.3 hPa SW 7 mph /  11.3 km/h 10 mph /  16.1 km/h 91 % 0 in /  0.0 mm
13:32 46.2 °F /  7.9 °C 43.5 °F /  6.4 °C 30.3 in /  1026.3 hPa SW 8 mph /  12.9 km/h 10 mph /  16.1 km/h 90 % 0 in /  0.0 mm
13:42 46.2 °F /  7.9 °C 43.7 °F /  6.5 °C 30.3 in /  1026.3 hPa SW 6 mph /  9.7 km/h 12 mph /  19.3 km/h 91 % 0 in /  0.0 mm
13:47 46.4 °F /  8.0 °C 43.9 °F /  6.6 °C 30.3 in /  1026.0 hPa SW 8 mph /  12.9 km/h 12 mph /  19.3 km/h 91 % 0 in /  0.0 mm
13:52 46.2 °F /  7.9 °C 44.1 °F /  6.7 °C 30.3 in /  1026.0 hPa SW 7 mph /  11.3 km/h 12 mph /  19.3 km/h 92 % 0 in /  0.0 mm
13:57 46.4 °F /  8.0 °C 44.4 °F /  6.9 °C 30.3 in /  1026.0 hPa SW 7 mph /  11.3 km/h 12 mph /  19.3 km/h 93 % 0 in /  0.0 mm
14:02 46.2 °F /  7.9 °C 44.2 °F /  6.8 °C 30.3 in /  1026.0 hPa SSW 6 mph /  9.7 km/h 12 mph /  19.3 km/h 93 % 0 in /  0.0 mm
14:07 46.4 °F /  8.0 °C 44.8 °F /  7.1 °C 30.3 in /  1026.0 hPa SSW 6 mph /  9.7 km/h 12 mph /  19.3 km/h 94 % 0 in /  0.0 mm
14:12 46.6 °F /  8.1 °C 45 °F /  7.2 °C 30.3 in /  1026.0 hPa SW 9 mph /  14.5 km/h 12 mph /  19.3 km/h 94 % 0 in /  0.0 mm
14:17 46.6 °F /  8.1 °C 45 °F /  7.2 °C 30.3 in /  1026.0 hPa SW 10 mph /  16.1 km/h 11 mph /  17.7 km/h 94 % 0 in /  0.0 mm
14:22 46.6 °F /  8.1 °C 45 °F /  7.2 °C 30.3 in /  1026.0 hPa SW 9 mph /  14.5 km/h 12 mph /  19.3 km/h 94 % 0 in /  0.0 mm
14:27 46.8 °F /  8.2 °C 45.1 °F /  7.3 °C 30.3 in /  1026.0 hPa SW 8 mph /  12.9 km/h 12 mph /  19.3 km/h 94 % 0 in /  0.0 mm
14:32 46.8 °F /  8.2 °C 44.8 °F /  7.1 °C 30.3 in /  1026.0 hPa SW 4 mph /  6.4 km/h 12 mph /  19.3 km/h 93 % 0 in /  0.0 mm
14:37 46.8 °F /  8.2 °C 44.8 °F /  7.1 °C 30.3 in /  1025.6 hPa SW 11 mph /  17.7 km/h 11 mph /  17.7 km/h 93 % 0 in /  0.0 mm
14:42 46.9 °F /  8.3 °C 45 °F /  7.2 °C 30.3 in /  1025.6 hPa SW 9 mph /  14.5 km/h 11 mph /  17.7 km/h 93 % 0 in /  0.0 mm
14:47 46.9 °F /  8.3 °C 45 °F /  7.2 °C 30.3 in /  1025.6 hPa SSW 3 mph /  4.8 km/h 12 mph /  19.3 km/h 93 % 0 in /  0.0 mm
14:57 47.1 °F /  8.4 °C 45.5 °F /  7.5 °C 30.3 in /  1025.6 hPa SSW 7 mph /  11.3 km/h 12 mph /  19.3 km/h 94 % 0 in /  0.0 mm
15:02 47.3 °F /  8.5 °C 45.7 °F /  7.6 °C 30.3 in /  1025.6 hPa SSW 6 mph /  9.7 km/h 12 mph /  19.3 km/h 94 % 0 in /  0.0 mm
15:12 47.5 °F /  8.6 °C 45.9 °F /  7.7 °C 30.3 in /  1025.3 hPa West 6 mph /  9.7 km/h 10 mph /  16.1 km/h 94 % 0 in /  0.0 mm
15:17 47.3 °F /  8.5 °C 45.9 °F /  7.7 °C 30.3 in /  1025.6 hPa SW 8 mph /  12.9 km/h 11 mph /  17.7 km/h 95 % 0 in /  0.0 mm
15:22 47.3 °F /  8.5 °C 45.9 °F /  7.7 °C 30.3 in /  1025.6 hPa SW 7 mph /  11.3 km/h 11 mph /  17.7 km/h 95 % 0 in /  0.0 mm
15:27 47.3 °F /  8.5 °C 45.9 °F /  7.7 °C 30.3 in /  1025.6 hPa SSW 3 mph /  4.8 km/h 10 mph /  16.1 km/h 95 % 0 in /  0.0 mm
15:32 47.3 °F /  8.5 °C 45.9 °F /  7.7 °C 30.3 in /  1025.6 hPa SSW 7 mph /  11.3 km/h 10 mph /  16.1 km/h 95 % 0 in /  0.0 mm
15:37 47.3 °F /  8.5 °C 45.9 °F /  7.7 °C 30.3 in /  1025.6 hPa South 4 mph /  6.4 km/h 8 mph /  12.9 km/h 95 % 0 in /  0.0 mm
15:42 47.3 °F /  8.5 °C 46.2 °F /  7.9 °C 30.3 in /  1025.3 hPa SW 5 mph /  8.0 km/h 12 mph /  19.3 km/h 96 % 0 in /  0.0 mm
15:47 47.3 °F /  8.5 °C 46.2 °F /  7.9 °C 30.3 in /  1025.3 hPa SW 5 mph /  8.0 km/h 12 mph /  19.3 km/h 96 % 0 in /  0.0 mm
15:52 47.3 °F /  8.5 °C 46.2 °F /  7.9 °C 30.3 in /  1025.3 hPa SW 4 mph /  6.4 km/h 12 mph /  19.3 km/h 96 % 0 in /  0.0 mm
15:57 47.5 °F /  8.6 °C 46.4 °F /  8.0 °C 30.3 in /  1025.3 hPa SW 6 mph /  9.7 km/h 10 mph /  16.1 km/h 96 % 0 in /  0.0 mm
16:07 47.5 °F /  8.6 °C 46.4 °F /  8.0 °C 30.3 in /  1025.3 hPa SW 5 mph /  8.0 km/h 12 mph /  19.3 km/h 96 % 0 in /  0.0 mm
16:12 47.5 °F /  8.6 °C 46.4 °F /  8.0 °C 30.3 in /  1025.3 hPa WSW 8 mph /  12.9 km/h 12 mph /  19.3 km/h 96 % 0 in /  0.0 mm
16:17 47.5 °F /  8.6 °C 46.4 °F /  8.0 °C 30.3 in /  1025.3 hPa SSW 7 mph /  11.3 km/h 12 mph /  19.3 km/h 96 % 0 in /  0.0 mm
16:22 47.5 °F /  8.6 °C 46.4 °F /  8.0 °C 30.3 in /  1024.9 hPa SW 11 mph /  17.7 km/h 18 mph /  29.0 km/h 96 % 0 in /  0.0 mm
16:27 47.5 °F /  8.6 °C 46.4 °F /  8.0 °C 30.3 in /  1024.9 hPa West 4 mph /  6.4 km/h 18 mph /  29.0 km/h 96 % 0 in /  0.0 mm
16:32 47.5 °F /  8.6 °C 46.4 °F /  8.0 °C 30.3 in /  1024.9 hPa West 8 mph /  12.9 km/h 18 mph /  29.0 km/h 96 % 0 in /  0.0 mm
16:37 47.5 °F /  8.6 °C 46.4 °F /  8.0 °C 30.3 in /  1025.3 hPa WSW 4 mph /  6.4 km/h 15 mph /  24.1 km/h 96 % 0 in /  0.0 mm
16:42 47.5 °F /  8.6 °C 46.4 °F /  8.0 °C 30.3 in /  1025.3 hPa West 9 mph /  14.5 km/h 14 mph /  22.5 km/h 96 % 0 in /  0.0 mm
16:47 47.5 °F /  8.6 °C 46.4 °F /  8.0 °C 30.3 in /  1024.9 hPa WSW 4 mph /  6.4 km/h 12 mph /  19.3 km/h 96 % 0 in /  0.0 mm
16:52 47.5 °F /  8.6 °C 46.4 °F /  8.0 °C 30.3 in /  1024.9 hPa WSW 4 mph /  6.4 km/h 14 mph /  22.5 km/h 96 % 0 in /  0.0 mm
16:57 47.7 °F /  8.7 °C 46.6 °F /  8.1 °C 30.3 in /  1024.9 hPa WSW 7 mph /  11.3 km/h 14 mph /  22.5 km/h 96 % 0 in /  0.0 mm
17:02 47.7 °F /  8.7 °C 46.6 °F /  8.1 °C 30.3 in /  1024.9 hPa SW 4 mph /  6.4 km/h 14 mph /  22.5 km/h 96 % 0 in /  0.0 mm
17:12 47.7 °F /  8.7 °C 46.6 °F /  8.1 °C 30.3 in /  1024.9 hPa SW 2 mph /  3.2 km/h 15 mph /  24.1 km/h 96 % 0 in /  0.0 mm
17:17 47.7 °F /  8.7 °C 46.6 °F /  8.1 °C 30.3 in /  1024.9 hPa West 9 mph /  14.5 km/h 15 mph /  24.1 km/h 96 % 0 in /  0.0 mm
17:22 47.7 °F /  8.7 °C 46.6 °F /  8.1 °C 30.3 in /  1024.9 hPa WSW 6 mph /  9.7 km/h 13 mph /  20.9 km/h 96 % 0 in /  0.0 mm
17:27 47.7 °F /  8.7 °C 46.6 °F /  8.1 °C 30.3 in /  1024.9 hPa South 3 mph /  4.8 km/h 13 mph /  20.9 km/h 96 % 0 in /  0.0 mm
17:32 47.7 °F /  8.7 °C 46.6 °F /  8.1 °C 30.3 in /  1024.9 hPa WSW 8 mph /  12.9 km/h 13 mph /  20.9 km/h 96 % 0 in /  0.0 mm
17:37 47.7 °F /  8.7 °C 46.6 °F /  8.1 °C 30.3 in /  1024.9 hPa SW 7 mph /  11.3 km/h 13 mph /  20.9 km/h 96 % 0 in /  0.0 mm
17:42 47.7 °F /  8.7 °C 46.6 °F /  8.1 °C 30.3 in /  1024.9 hPa SW 6 mph /  9.7 km/h 13 mph /  20.9 km/h 96 % 0 in /  0.0 mm
17:47 47.7 °F /  8.7 °C 46.6 °F /  8.1 °C 30.3 in /  1024.9 hPa SW 5 mph /  8.0 km/h 17 mph /  27.4 km/h 96 % 0 in /  0.0 mm
17:52 47.7 °F /  8.7 °C 46.6 °F /  8.1 °C 30.3 in /  1024.9 hPa SSW 2 mph /  3.2 km/h 17 mph /  27.4 km/h 96 % 0 in /  0.0 mm
17:57 47.7 °F /  8.7 °C 46.6 °F /  8.1 °C 30.3 in /  1024.9 hPa SSW 3 mph /  4.8 km/h 17 mph /  27.4 km/h 96 % 0 in /  0.0 mm
18:02 47.7 °F /  8.7 °C 46.6 °F /  8.1 °C 30.3 in /  1024.9 hPa West 4 mph /  6.4 km/h 17 mph /  27.4 km/h 96 % 0 in /  0.0 mm
18:07 47.7 °F /  8.7 °C 46.6 °F /  8.1 °C 30.3 in /  1025.3 hPa SW 7 mph /  11.3 km/h 13 mph /  20.9 km/h 96 % 0 in /  0.0 mm
18:12 47.7 °F /  8.7 °C 46.6 °F /  8.1 °C 30.3 in /  1024.9 hPa SW 3 mph /  4.8 km/h 13 mph /  20.9 km/h 96 % 0 in /  0.0 mm
18:17 47.7 °F /  8.7 °C 46.6 °F /  8.1 °C 30.3 in /  1024.9 hPa SW 6 mph /  9.7 km/h 13 mph /  20.9 km/h 96 % 0 in /  0.0 mm
18:22 47.7 °F /  8.7 °C 46.6 °F /  8.1 °C 30.3 in /  1025.3 hPa SW 5 mph /  8.0 km/h 12 mph /  19.3 km/h 96 % 0 in /  0.0 mm
18:27 47.7 °F /  8.7 °C 46.6 °F /  8.1 °C 30.3 in /  1024.9 hPa SW 7 mph /  11.3 km/h 12 mph /  19.3 km/h 96 % 0 in /  0.0 mm
18:32 47.7 °F /  8.7 °C 46.6 °F /  8.1 °C 30.3 in /  1024.9 hPa SW 10 mph /  16.1 km/h 12 mph /  19.3 km/h 96 % 0 in /  0.0 mm
18:42 47.8 °F /  8.8 °C 46.8 °F /  8.2 °C 30.3 in /  1024.9 hPa WSW 9 mph /  14.5 km/h 13 mph /  20.9 km/h 96 % 0 in /  0.0 mm
18:47 47.8 °F /  8.8 °C 46.8 °F /  8.2 °C 30.3 in /  1025.3 hPa WSW 8 mph /  12.9 km/h 13 mph /  20.9 km/h 96 % 0 in /  0.0 mm
18:52 47.8 °F /  8.8 °C 46.8 °F /  8.2 °C 30.3 in /  1025.3 hPa WSW 6 mph /  9.7 km/h 13 mph /  20.9 km/h 96 % 0 in /  0.0 mm
18:57 47.8 °F /  8.8 °C 46.8 °F /  8.2 °C 30.3 in /  1025.3 hPa SSW 5 mph /  8.0 km/h 13 mph /  20.9 km/h 96 % 0 in /  0.0 mm
19:02 47.7 °F /  8.7 °C 46.6 °F /  8.1 °C 30.3 in /  1025.3 hPa SW 5 mph /  8.0 km/h 13 mph /  20.9 km/h 96 % 0 in /  0.0 mm
19:07 47.7 °F /  8.7 °C 46.9 °F /  8.3 °C 30.3 in /  1025.3 hPa SSW 3 mph /  4.8 km/h 11 mph /  17.7 km/h 97 % 0 in /  0.0 mm
19:12 47.7 °F /  8.7 °C 46.9 °F /  8.3 °C 30.3 in /  1025.3 hPa SSW 1 mph /  1.6 km/h 10 mph /  16.1 km/h 97 % 0 in /  0.0 mm
19:17 47.7 °F /  8.7 °C 46.9 °F /  8.3 °C 30.3 in /  1025.3 hPa West 3 mph /  4.8 km/h 10 mph /  16.1 km/h 97 % 0 in /  0.0 mm
19:22 47.7 °F /  8.7 °C 46.9 °F /  8.3 °C 30.3 in /  1025.3 hPa WSW 3 mph /  4.8 km/h 7 mph /  11.3 km/h 97 % 0 in /  0.0 mm
19:27 47.7 °F /  8.7 °C 46.9 °F /  8.3 °C 30.3 in /  1025.3 hPa SW 4 mph /  6.4 km/h 8 mph /  12.9 km/h 97 % 0 in /  0.0 mm
19:32 47.7 °F /  8.7 °C 46.9 °F /  8.3 °C 30.3 in /  1025.3 hPa WSW 10 mph /  16.1 km/h 10 mph /  16.1 km/h 97 % 0.01 in /  0.3 mm
19:37 47.7 °F /  8.7 °C 46.9 °F /  8.3 °C 30.3 in /  1025.3 hPa West 4 mph /  6.4 km/h 11 mph /  17.7 km/h 97 % 0.01 in /  0.3 mm
19:42 47.7 °F /  8.7 °C 46.9 °F /  8.3 °C 30.3 in /  1025.3 hPa SW 3 mph /  4.8 km/h 12 mph /  19.3 km/h 97 % 0.01 in /  0.3 mm
19:47 47.7 °F /  8.7 °C 46.9 °F /  8.3 °C 30.3 in /  1025.3 hPa SW 3 mph /  4.8 km/h 12 mph /  19.3 km/h 97 % 0.01 in /  0.3 mm
19:52 47.7 °F /  8.7 °C 46.9 °F /  8.3 °C 30.3 in /  1025.3 hPa WSW 4 mph /  6.4 km/h 12 mph /  19.3 km/h 97 % 0.01 in /  0.3 mm
19:57 47.7 °F /  8.7 °C 46.9 °F /  8.3 °C 30.3 in /  1025.3 hPa SW 11 mph /  17.7 km/h 11 mph /  17.7 km/h 97 % 0.01 in /  0.3 mm
20:02 47.7 °F /  8.7 °C 46.9 °F /  8.3 °C 30.3 in /  1025.3 hPa SW 2 mph /  3.2 km/h 8 mph /  12.9 km/h 97 % 0.01 in /  0.3 mm
20:07 47.7 °F /  8.7 °C 46.9 °F /  8.3 °C 30.3 in /  1025.3 hPa WSW 6 mph /  9.7 km/h 11 mph /  17.7 km/h 97 % 0.01 in /  0.3 mm
20:12 47.7 °F /  8.7 °C 46.9 °F /  8.3 °C 30.3 in /  1025.3 hPa WSW 7 mph /  11.3 km/h 11 mph /  17.7 km/h 97 % 0.01 in /  0.3 mm
20:17 47.7 °F /  8.7 °C 46.9 °F /  8.3 °C 30.3 in /  1025.6 hPa West 2 mph /  3.2 km/h 11 mph /  17.7 km/h 97 % 0.01 in /  0.3 mm
20:22 47.7 °F /  8.7 °C 46.9 °F /  8.3 °C 30.3 in /  1025.3 hPa SW 2 mph /  3.2 km/h 11 mph /  17.7 km/h 97 % 0.01 in /  0.3 mm
20:27 47.7 °F /  8.7 °C 46.6 °F /  8.1 °C 30.3 in /  1025.3 hPa West 1 mph /  1.6 km/h 11 mph /  17.7 km/h 96 % 0.01 in /  0.3 mm
20:32 47.7 °F /  8.7 °C 46.6 °F /  8.1 °C 30.3 in /  1025.3 hPa West 5 mph /  8.0 km/h 11 mph /  17.7 km/h 96 % 0 in /  0.0 mm
20:37 47.7 °F /  8.7 °C 46.6 °F /  8.1 °C 30.3 in /  1025.3 hPa WSW 6 mph /  9.7 km/h 11 mph /  17.7 km/h 96 % 0 in /  0.0 mm
20:42 47.7 °F /  8.7 °C 46.6 °F /  8.1 °C 30.3 in /  1025.3 hPa WSW 6 mph /  9.7 km/h 11 mph /  17.7 km/h 96 % 0 in /  0.0 mm
20:47 47.7 °F /  8.7 °C 46.6 °F /  8.1 °C 30.3 in /  1025.3 hPa West 6 mph /  9.7 km/h 11 mph /  17.7 km/h 96 % 0 in /  0.0 mm
20:52 47.7 °F /  8.7 °C 46.6 °F /  8.1 °C 30.3 in /  1025.3 hPa WSW 5 mph /  8.0 km/h 11 mph /  17.7 km/h 96 % 0 in /  0.0 mm
20:57 47.7 °F /  8.7 °C 46.6 °F /  8.1 °C 30.3 in /  1025.3 hPa WSW 8 mph /  12.9 km/h 10 mph /  16.1 km/h 96 % 0 in /  0.0 mm
21:02 47.7 °F /  8.7 °C 46.6 °F /  8.1 °C 30.3 in /  1025.3 hPa WSW 5 mph /  8.0 km/h 10 mph /  16.1 km/h 96 % 0 in /  0.0 mm
21:12 47.7 °F /  8.7 °C 46.6 °F /  8.1 °C 30.3 in /  1025.3 hPa SW 7 mph /  11.3 km/h 15 mph /  24.1 km/h 96 % 0 in /  0.0 mm
21:17 47.7 °F /  8.7 °C 46.6 °F /  8.1 °C 30.3 in /  1025.3 hPa SW 4 mph /  6.4 km/h 15 mph /  24.1 km/h 96 % 0 in /  0.0 mm
21:22 47.7 °F /  8.7 °C 46.6 °F /  8.1 °C 30.3 in /  1025.3 hPa WSW 3 mph /  4.8 km/h 15 mph /  24.1 km/h 96 % 0 in /  0.0 mm
21:27 47.7 °F /  8.7 °C 46.6 °F /  8.1 °C 30.3 in /  1025.6 hPa South 2 mph /  3.2 km/h 14 mph /  22.5 km/h 96 % 0 in /  0.0 mm
21:32 47.5 °F /  8.6 °C 46.4 °F /  8.0 °C 30.3 in /  1025.3 hPa SW 5 mph /  8.0 km/h 14 mph /  22.5 km/h 96 % 0 in /  0.0 mm
21:37 47.5 °F /  8.6 °C 46.4 °F /  8.0 °C 30.3 in /  1025.3 hPa SW 10 mph /  16.1 km/h 10 mph /  16.1 km/h 96 % 0 in /  0.0 mm
21:42 47.5 °F /  8.6 °C 46.8 °F /  8.2 °C 30.3 in /  1025.6 hPa SW 1 mph /  1.6 km/h 12 mph /  19.3 km/h 97 % 0 in /  0.0 mm
21:47 47.5 °F /  8.6 °C 46.8 °F /  8.2 °C 30.3 in /  1025.6 hPa SW 3 mph /  4.8 km/h 12 mph /  19.3 km/h 97 % 0 in /  0.0 mm
21:52 47.5 °F /  8.6 °C 46.8 °F /  8.2 °C 30.3 in /  1025.6 hPa West 5 mph /  8.0 km/h 12 mph /  19.3 km/h 97 % 0 in /  0.0 mm
21:57 47.5 °F /  8.6 °C 46.8 °F /  8.2 °C 30.3 in /  1025.6 hPa Calm   11 mph /  17.7 km/h 97 % 0 in /  0.0 mm
22:02 47.5 °F /  8.6 °C 46.8 °F /  8.2 °C 30.3 in /  1025.6 hPa SW 4 mph /  6.4 km/h 11 mph /  17.7 km/h 97 % 0 in /  0.0 mm
22:12 47.5 °F /  8.6 °C 46.8 °F /  8.2 °C 30.3 in /  1025.6 hPa South 2 mph /  3.2 km/h 8 mph /  12.9 km/h 97 % 0 in /  0.0 mm
22:17 47.5 °F /  8.6 °C 46.8 °F /  8.2 °C 30.3 in /  1025.6 hPa SW 9 mph /  14.5 km/h 9 mph /  14.5 km/h 97 % 0 in /  0.0 mm
22:22 47.5 °F /  8.6 °C 46.8 °F /  8.2 °C 30.3 in /  1025.6 hPa WSW 1 mph /  1.6 km/h 9 mph /  14.5 km/h 97 % 0 in /  0.0 mm
22:27 47.5 °F /  8.6 °C 46.8 °F /  8.2 °C 30.3 in /  1025.6 hPa WNW 3 mph /  4.8 km/h 9 mph /  14.5 km/h 97 % 0 in /  0.0 mm
22:32 47.5 °F /  8.6 °C 46.8 °F /  8.2 °C 30.3 in /  1025.6 hPa SW 7 mph /  11.3 km/h 9 mph /  14.5 km/h 97 % 0 in /  0.0 mm
22:37 47.5 °F /  8.6 °C 46.8 °F /  8.2 °C 30.3 in /  1025.6 hPa WSW 4 mph /  6.4 km/h 12 mph /  19.3 km/h 97 % 0 in /  0.0 mm
22:42 47.7 °F /  8.7 °C 46.9 °F /  8.3 °C 30.3 in /  1025.6 hPa SW 2 mph /  3.2 km/h 13 mph /  20.9 km/h 97 % 0 in /  0.0 mm
22:47 47.5 °F /  8.6 °C 46.8 °F /  8.2 °C 30.3 in /  1025.6 hPa WSW 4 mph /  6.4 km/h 13 mph /  20.9 km/h 97 % 0 in /  0.0 mm
22:52 47.5 °F /  8.6 °C 46.8 °F /  8.2 °C 30.3 in /  1025.6 hPa West 2 mph /  3.2 km/h 12 mph /  19.3 km/h 97 % 0 in /  0.0 mm
22:57 47.7 °F /  8.7 °C 46.9 °F /  8.3 °C 30.3 in /  1025.6 hPa WSW 6 mph /  9.7 km/h 12 mph /  19.3 km/h 97 % 0 in /  0.0 mm
23:02 47.7 °F /  8.7 °C 46.9 °F /  8.3 °C 30.3 in /  1025.6 hPa WSW 5 mph /  8.0 km/h 12 mph /  19.3 km/h 97 % 0 in /  0.0 mm
23:07 47.7 °F /  8.7 °C 46.9 °F /  8.3 °C 30.3 in /  1025.6 hPa WSW 6 mph /  9.7 km/h 10 mph /  16.1 km/h 97 % 0 in /  0.0 mm
23:12 47.7 °F /  8.7 °C 46.9 °F /  8.3 °C 30.3 in /  1025.6 hPa WSW 3 mph /  4.8 km/h 10 mph /  16.1 km/h 97 % 0 in /  0.0 mm
23:17 47.7 °F /  8.7 °C 46.9 °F /  8.3 °C 30.3 in /  1025.6 hPa SW 2 mph /  3.2 km/h 9 mph /  14.5 km/h 97 % 0 in /  0.0 mm
23:22 47.7 °F /  8.7 °C 46.9 °F /  8.3 °C 30.3 in /  1025.6 hPa WSW 5 mph /  8.0 km/h 9 mph /  14.5 km/h 97 % 0 in /  0.0 mm
23:27 47.7 °F /  8.7 °C 46.9 °F /  8.3 °C 30.3 in /  1025.6 hPa WSW 3 mph /  4.8 km/h 9 mph /  14.5 km/h 97 % 0 in /  0.0 mm
23:32 47.7 °F /  8.7 °C 46.9 °F /  8.3 °C 30.3 in /  1025.3 hPa SSW 3 mph /  4.8 km/h 9 mph /  14.5 km/h 97 % 0 in /  0.0 mm
23:37 47.7 °F /  8.7 °C 46.9 °F /  8.3 °C 30.3 in /  1025.3 hPa SSW 2 mph /  3.2 km/h 7 mph /  11.3 km/h 97 % 0 in /  0.0 mm
23:42 47.7 °F /  8.7 °C 46.9 °F /  8.3 °C 30.3 in /  1025.3 hPa SW 3 mph /  4.8 km/h 7 mph /  11.3 km/h 97 % 0 in /  0.0 mm
23:47 47.7 °F /  8.7 °C 46.9 °F /  8.3 °C 30.3 in /  1025.3 hPa WSW 2 mph /  3.2 km/h 6 mph /  9.7 km/h 97 % 0 in /  0.0 mm
23:52 47.7 °F /  8.7 °C 46.9 °F /  8.3 °C 30.3 in /  1025.3 hPa SW 3 mph /  4.8 km/h 6 mph /  9.7 km/h 97 % 0 in /  0.0 mm
Meteo18
Compliments of Weather Underground - 4 mb

Script developed by  Jim McMurry - jmcmurry@mwt.net Adapted for the template by  Wim van der Kuil - Leuven-Template.eu

You find our weather info also at:

European Weather Network

Weather Underground

Equipment we use:

Weather-station
Davis Vue

Weather-program
Meteohub

Weather-server
Raspberry PI 2 B+

Provider
1 and 1

Davis Vue

Meteohub

Raspberry PI 2 B+

1 and 1